createdAt,value
2018-07-04T00:00:36.844Z,25.97
2018-07-04T00:01:36.807Z,25.94
2018-07-04T00:02:36.795Z,25.96
2018-07-04T00:03:36.785Z,25.94
2018-07-04T00:04:36.774Z,25.97
2018-07-04T00:05:36.786Z,26.01
2018-07-04T00:06:36.753Z,25.91
2018-07-04T00:07:36.741Z,25.94
2018-07-04T00:08:36.732Z,25.90
2018-07-04T00:09:36.719Z,25.96
2018-07-04T00:10:36.732Z,25.98
2018-07-04T00:11:36.698Z,25.94
2018-07-04T00:12:36.693Z,25.91
2018-07-04T00:13:36.675Z,25.91
2018-07-04T00:14:36.664Z,25.91
2018-07-04T00:15:36.677Z,25.94
2018-07-04T00:16:36.642Z,25.96
2018-07-04T00:17:36.632Z,25.83
2018-07-04T00:18:36.621Z,25.91
2018-07-04T00:19:36.609Z,25.90
2018-07-04T00:20:36.630Z,25.91
2018-07-04T00:21:36.587Z,25.91
2018-07-04T00:22:36.577Z,25.89
2018-07-04T00:23:36.566Z,25.91
2018-07-04T00:24:36.555Z,25.91
2018-07-04T00:25:36.621Z,25.91
2018-07-04T00:26:36.534Z,25.89
2018-07-04T00:27:36.522Z,25.85
2018-07-04T00:28:36.524Z,25.82
2018-07-04T00:29:36.499Z,25.89
2018-07-04T00:30:36.517Z,25.85
2018-07-04T00:31:36.477Z,25.82
2018-07-04T00:32:36.468Z,25.83
2018-07-04T00:33:36.456Z,25.85
2018-07-04T00:34:36.449Z,25.78
2018-07-04T00:35:36.458Z,25.83
2018-07-04T00:36:36.422Z,25.82
2018-07-04T00:37:36.412Z,25.79
2018-07-04T00:38:36.402Z,25.81
2018-07-04T00:39:36.393Z,25.83
2018-07-04T00:40:36.402Z,25.79
2018-07-04T00:41:36.368Z,25.79
2018-07-04T00:42:36.357Z,25.82
2018-07-04T00:43:36.346Z,25.79
2018-07-04T00:44:36.337Z,25.78
2018-07-04T00:45:36.349Z,25.78
2018-07-04T00:46:36.314Z,25.81
2018-07-04T00:47:36.303Z,25.82
2018-07-04T00:48:36.291Z,25.76
2018-07-04T00:49:36.280Z,25.78
2018-07-04T00:50:36.292Z,25.83
2018-07-04T00:51:36.259Z,25.74
2018-07-04T00:52:36.249Z,25.71
2018-07-04T00:53:36.237Z,25.75
2018-07-04T00:54:36.225Z,25.72
2018-07-04T00:55:36.238Z,25.75
2018-07-04T00:56:36.203Z,25.78
2018-07-04T00:57:36.193Z,25.66
2018-07-04T00:58:36.180Z,25.79
2018-07-04T00:59:36.170Z,25.81
2018-07-04T01:00:36.183Z,25.74
2018-07-04T01:01:36.148Z,25.71
2018-07-04T01:02:36.142Z,25.69
2018-07-04T01:03:36.127Z,25.71
2018-07-04T01:04:36.115Z,25.78
2018-07-04T01:05:36.128Z,25.69
2018-07-04T01:06:36.094Z,25.75
2018-07-04T01:07:36.084Z,25.71
2018-07-04T01:08:36.075Z,25.72
2018-07-04T01:09:36.062Z,25.67
2018-07-04T01:10:36.073Z,25.66
2018-07-04T01:11:36.040Z,25.66
2018-07-04T01:12:36.031Z,25.72
2018-07-04T01:13:36.022Z,25.72
2018-07-04T01:14:36.008Z,25.64
2018-07-04T01:15:36.019Z,25.72
2018-07-04T01:16:35.984Z,25.69
2018-07-04T01:17:35.973Z,25.63
2018-07-04T01:18:35.963Z,25.75
2018-07-04T01:19:35.953Z,25.71
2018-07-04T01:20:35.944Z,25.64
2018-07-04T01:21:35.953Z,25.67
2018-07-04T01:22:35.923Z,25.69
2018-07-04T01:23:35.910Z,25.66
2018-07-04T01:24:35.895Z,25.64
2018-07-04T01:25:35.892Z,25.74
2018-07-04T01:26:35.897Z,25.69
2018-07-04T01:27:35.862Z,25.71
2018-07-04T01:28:35.856Z,25.64
2018-07-04T01:29:35.850Z,25.71
2018-07-04T01:30:35.833Z,25.67
2018-07-04T01:31:35.842Z,25.64
2018-07-04T01:32:35.809Z,25.66
2018-07-04T01:33:35.797Z,25.66
2018-07-04T01:34:35.785Z,25.63
2018-07-04T01:35:35.778Z,25.64
2018-07-04T01:36:35.789Z,25.69
2018-07-04T01:37:35.753Z,25.61
2018-07-04T01:38:35.743Z,25.64
2018-07-04T01:39:35.732Z,25.66
2018-07-04T01:40:35.724Z,25.67
2018-07-04T01:41:35.733Z,25.67
2018-07-04T01:42:35.701Z,25.67
2018-07-04T01:43:35.688Z,25.60
2018-07-04T01:44:35.678Z,25.59
2018-07-04T01:45:35.667Z,25.61
2018-07-04T01:46:35.678Z,25.63
2018-07-04T01:47:35.644Z,25.53
2018-07-04T01:48:35.633Z,25.66
2018-07-04T01:49:35.621Z,25.66
2018-07-04T01:50:35.613Z,25.56
2018-07-04T01:51:35.623Z,25.64
2018-07-04T01:52:35.590Z,25.64
2018-07-04T01:53:35.578Z,25.59
2018-07-04T01:54:35.566Z,25.61
2018-07-04T01:55:35.558Z,25.61
2018-07-04T01:56:35.569Z,25.60
2018-07-04T01:57:35.538Z,25.53
2018-07-04T01:58:35.524Z,25.59
2018-07-04T01:59:35.512Z,25.61
2018-07-04T02:00:35.501Z,25.51
2018-07-04T02:01:35.514Z,25.60
2018-07-04T02:02:35.480Z,25.48
2018-07-04T02:03:35.469Z,25.51
2018-07-04T02:04:35.458Z,25.54
2018-07-04T02:05:35.448Z,25.56
2018-07-04T02:06:35.465Z,25.51
2018-07-04T02:07:35.425Z,25.57
2018-07-04T02:08:35.413Z,25.54
2018-07-04T02:09:35.403Z,25.51
2018-07-04T02:10:35.392Z,25.49
2018-07-04T02:11:35.404Z,25.54
2018-07-04T02:12:35.370Z,25.49
2018-07-04T02:13:35.358Z,25.56
2018-07-04T02:14:35.348Z,25.56
2018-07-04T02:15:35.337Z,25.53
2018-07-04T02:16:35.349Z,25.49
2018-07-04T02:17:35.316Z,25.57
2018-07-04T02:18:35.304Z,25.51
2018-07-04T02:19:35.294Z,25.51
2018-07-04T02:20:35.284Z,25.51
2018-07-04T02:21:35.295Z,25.51
2018-07-04T02:22:35.260Z,25.53
2018-07-04T02:23:35.250Z,25.49
2018-07-04T02:24:35.240Z,25.44
2018-07-04T02:25:35.227Z,25.51
2018-07-04T02:26:35.240Z,25.48
2018-07-04T02:27:35.206Z,25.45
2018-07-04T02:28:35.194Z,25.45
2018-07-04T02:29:35.184Z,25.44
2018-07-04T02:30:35.174Z,25.41
2018-07-04T02:31:35.189Z,25.54
2018-07-04T02:32:35.151Z,25.49
2018-07-04T02:33:35.140Z,25.36
2018-07-04T02:34:35.129Z,25.41
2018-07-04T02:35:35.117Z,25.56
2018-07-04T02:36:35.129Z,25.49
2018-07-04T02:37:35.095Z,25.54
2018-07-04T02:38:35.086Z,25.44
2018-07-04T02:39:35.075Z,25.44
2018-07-04T02:40:35.064Z,25.41
2018-07-04T02:41:35.076Z,25.46
2018-07-04T02:42:35.050Z,25.45
2018-07-04T02:43:35.031Z,25.41
2018-07-04T02:44:35.019Z,25.54
2018-07-04T02:45:35.008Z,25.51
2018-07-04T02:46:35.021Z,25.41
2018-07-04T02:47:34.986Z,25.46
2018-07-04T02:48:34.976Z,25.44
2018-07-04T02:49:34.964Z,25.51
2018-07-04T02:50:34.954Z,25.44
2018-07-04T02:51:34.966Z,25.44
2018-07-04T02:52:34.932Z,25.46
2018-07-04T02:53:34.921Z,25.42
2018-07-04T02:54:34.910Z,25.41
2018-07-04T02:55:34.899Z,25.46
2018-07-04T02:56:34.914Z,25.41
2018-07-04T02:57:34.910Z,25.38
2018-07-04T02:58:34.865Z,25.42
2018-07-04T02:59:34.858Z,25.39
2018-07-04T03:00:34.844Z,25.44
2018-07-04T03:01:34.857Z,25.42
2018-07-04T03:02:34.821Z,25.38
2018-07-04T03:03:34.810Z,25.36
2018-07-04T03:04:34.801Z,25.42
2018-07-04T03:05:34.789Z,25.41
2018-07-04T03:06:34.811Z,25.41
2018-07-04T03:07:34.766Z,25.38
2018-07-04T03:08:34.756Z,25.38
2018-07-04T03:09:34.745Z,25.41
2018-07-04T03:10:34.734Z,25.38
2018-07-04T03:11:34.725Z,25.42
2018-07-04T03:12:34.736Z,25.39
2018-07-04T03:13:34.701Z,25.41
2018-07-04T03:14:34.690Z,25.36
2018-07-04T03:15:34.681Z,25.38
2018-07-04T03:16:34.671Z,25.41
2018-07-04T03:17:34.683Z,25.38
2018-07-04T03:18:34.647Z,25.36
2018-07-04T03:19:34.636Z,25.41
2018-07-04T03:20:34.630Z,25.39
2018-07-04T03:21:34.615Z,25.36
2018-07-04T03:22:34.626Z,25.34
2018-07-04T03:23:34.592Z,25.36
2018-07-04T03:24:34.581Z,25.35
2018-07-04T03:25:34.570Z,25.39
2018-07-04T03:26:34.562Z,25.35
2018-07-04T03:27:34.571Z,25.38
2018-07-04T03:28:34.536Z,25.39
2018-07-04T03:29:34.525Z,25.35
2018-07-04T03:30:34.515Z,25.34
2018-07-04T03:31:34.504Z,25.38
2018-07-04T03:32:34.516Z,25.38
2018-07-04T03:33:34.483Z,25.31
2018-07-04T03:34:34.471Z,25.38
2018-07-04T03:35:34.462Z,25.38
2018-07-04T03:36:34.450Z,25.38
2018-07-04T03:37:34.462Z,25.36
2018-07-04T03:38:34.427Z,25.35
2018-07-04T03:39:34.416Z,25.36
2018-07-04T03:40:34.406Z,25.36
2018-07-04T03:41:34.396Z,25.38
2018-07-04T03:42:34.406Z,25.36
2018-07-04T03:43:34.373Z,25.31
2018-07-04T03:44:34.362Z,25.35
2018-07-04T03:45:34.351Z,25.38
2018-07-04T03:46:34.341Z,25.36
2018-07-04T03:47:34.353Z,25.34
2018-07-04T03:48:34.318Z,25.36
2018-07-04T03:49:34.308Z,25.36
2018-07-04T03:50:34.296Z,25.30
2018-07-04T03:51:34.286Z,25.36
2018-07-04T03:52:34.301Z,25.30
2018-07-04T03:53:34.265Z,25.35
2018-07-04T03:54:34.256Z,25.36
2018-07-04T03:55:34.241Z,25.38
2018-07-04T03:56:34.229Z,25.39
2018-07-04T03:57:34.244Z,25.27
2018-07-04T03:58:34.208Z,25.36
2018-07-04T03:59:34.198Z,25.31
2018-07-04T04:00:34.194Z,25.30
2018-07-04T04:01:34.178Z,25.27
2018-07-04T04:02:34.189Z,25.29
2018-07-04T04:03:34.154Z,25.29
2018-07-04T04:04:34.143Z,25.34
2018-07-04T04:05:34.131Z,25.38
2018-07-04T04:06:34.120Z,25.26
2018-07-04T04:07:34.134Z,25.35
2018-07-04T04:08:34.099Z,25.31
2018-07-04T04:09:34.089Z,25.31
2018-07-04T04:10:34.078Z,25.31
2018-07-04T04:11:34.068Z,25.38
2018-07-04T04:12:34.078Z,25.34
2018-07-04T04:13:34.046Z,25.29
2018-07-04T04:14:34.033Z,25.30
2018-07-04T04:15:34.023Z,25.34
2018-07-04T04:16:34.011Z,25.31
2018-07-04T04:17:34.022Z,25.35
2018-07-04T04:18:33.989Z,25.35
2018-07-04T04:19:33.978Z,25.31
2018-07-04T04:20:33.968Z,25.38
2018-07-04T04:21:33.960Z,25.35
2018-07-04T04:22:33.968Z,25.34
2018-07-04T04:23:33.934Z,25.34
2018-07-04T04:24:33.924Z,25.36
2018-07-04T04:25:33.912Z,25.36
2018-07-04T04:26:33.901Z,25.34
2018-07-04T04:27:33.914Z,25.38
2018-07-04T04:28:33.881Z,25.31
2018-07-04T04:29:33.871Z,25.30
2018-07-04T04:30:33.859Z,25.35
2018-07-04T04:31:33.846Z,25.35
2018-07-04T04:32:33.860Z,25.35
2018-07-04T04:33:33.825Z,25.35
2018-07-04T04:34:33.818Z,25.35
2018-07-04T04:35:33.803Z,25.35
2018-07-04T04:36:33.793Z,25.35
2018-07-04T04:37:33.805Z,25.38
2018-07-04T04:38:33.772Z,25.31
2018-07-04T04:39:33.759Z,25.36
2018-07-04T04:40:33.749Z,25.31
2018-07-04T04:41:33.737Z,25.35
2018-07-04T04:42:33.751Z,25.35
2018-07-04T04:43:33.753Z,25.35
2018-07-04T04:44:33.706Z,25.36
2018-07-04T04:45:33.694Z,25.36
2018-07-04T04:46:33.681Z,25.34
2018-07-04T04:47:33.696Z,25.39
2018-07-04T04:48:33.661Z,25.29
2018-07-04T04:49:33.650Z,25.35
2018-07-04T04:50:33.639Z,25.35
2018-07-04T04:51:33.626Z,25.39
2018-07-04T04:52:33.621Z,25.31
2018-07-04T04:53:33.628Z,25.36
2018-07-04T04:54:33.598Z,25.41
2018-07-04T04:55:33.583Z,25.41
2018-07-04T04:56:33.573Z,25.42
2018-07-04T04:57:33.563Z,25.39
2018-07-04T04:58:33.574Z,25.41
2018-07-04T04:59:33.547Z,25.44
2018-07-04T05:00:33.529Z,25.39
2018-07-04T05:01:33.516Z,25.41
2018-07-04T05:02:33.509Z,25.46
2018-07-04T05:03:33.519Z,25.42
2018-07-04T05:04:33.484Z,25.46
2018-07-04T05:05:33.475Z,25.39
2018-07-04T05:06:33.462Z,25.39
2018-07-04T05:07:33.455Z,25.46
2018-07-04T05:08:33.465Z,25.56
2018-07-04T05:09:33.434Z,25.45
2018-07-04T05:10:33.419Z,25.45
2018-07-04T05:11:33.408Z,25.48
2018-07-04T05:12:33.396Z,25.51
2018-07-04T05:13:33.409Z,25.53
2018-07-04T05:14:33.376Z,25.49
2018-07-04T05:15:33.366Z,25.49
2018-07-04T05:16:33.355Z,25.54
2018-07-04T05:17:33.342Z,25.53
2018-07-04T05:18:33.354Z,25.51
2018-07-04T05:19:33.319Z,25.57
2018-07-04T05:20:33.310Z,25.49
2018-07-04T05:21:33.298Z,25.49
2018-07-04T05:22:33.288Z,25.53
2018-07-04T05:23:33.300Z,25.54
2018-07-04T05:24:33.266Z,25.51
2018-07-04T05:25:33.258Z,25.54
2018-07-04T05:26:33.243Z,25.46
2018-07-04T05:27:33.232Z,25.48
2018-07-04T05:28:33.244Z,25.45
2018-07-04T05:29:33.210Z,25.51
2018-07-04T05:30:33.202Z,25.53
2018-07-04T05:31:33.187Z,25.54
2018-07-04T05:32:33.178Z,25.59
2018-07-04T05:33:33.189Z,25.49
2018-07-04T05:34:33.158Z,25.56
2018-07-04T05:35:33.145Z,25.49
2018-07-04T05:36:33.139Z,25.49
2018-07-04T05:37:33.123Z,25.51
2018-07-04T05:38:33.137Z,25.53
2018-07-04T05:39:33.100Z,25.49
2018-07-04T05:40:33.089Z,25.56
2018-07-04T05:41:33.086Z,25.60
2018-07-04T05:42:33.069Z,25.59
2018-07-04T05:43:33.080Z,25.56
2018-07-04T05:44:33.048Z,25.64
2018-07-04T05:45:33.037Z,25.59
2018-07-04T05:46:33.025Z,25.63
2018-07-04T05:47:33.078Z,25.63
2018-07-04T05:48:33.025Z,25.64
2018-07-04T05:49:32.991Z,25.57
2018-07-04T05:50:32.980Z,25.63
2018-07-04T05:51:32.968Z,25.64
2018-07-04T05:52:32.958Z,25.64
2018-07-04T05:53:32.968Z,25.51
2018-07-04T05:54:32.935Z,25.71
2018-07-04T05:55:32.927Z,25.61
2018-07-04T05:56:32.914Z,25.67
2018-07-04T05:57:32.902Z,25.63
2018-07-04T05:58:32.917Z,25.54
2018-07-04T05:59:32.881Z,25.57
2018-07-04T06:00:32.869Z,25.51
2018-07-04T06:01:32.859Z,25.53
2018-07-04T06:02:32.848Z,25.54
2018-07-04T06:03:32.858Z,25.41
2018-07-04T06:04:32.825Z,25.42
2018-07-04T06:05:32.815Z,25.38
2018-07-04T06:06:32.804Z,25.48
2018-07-04T06:07:32.793Z,25.41
2018-07-04T06:08:32.806Z,25.39
2018-07-04T06:09:32.771Z,25.51
2018-07-04T06:10:32.761Z,25.38
2018-07-04T06:11:32.749Z,25.48
2018-07-04T06:12:32.738Z,25.38
2018-07-04T06:13:32.749Z,25.53
2018-07-04T06:14:32.717Z,25.39
2018-07-04T06:15:32.704Z,25.49
2018-07-04T06:16:32.695Z,25.53
2018-07-04T06:17:32.721Z,25.54
2018-07-04T06:18:32.694Z,25.61
2018-07-04T06:19:32.677Z,25.61
2018-07-04T06:20:32.661Z,25.61
2018-07-04T06:21:32.640Z,25.69
2018-07-04T06:22:32.628Z,25.61
2018-07-04T06:23:32.640Z,25.66
2018-07-04T06:24:32.605Z,25.64
2018-07-04T06:25:32.596Z,25.75
2018-07-04T06:26:32.587Z,25.67
2018-07-04T06:27:32.572Z,25.63
2018-07-04T06:28:32.584Z,25.69
2018-07-04T06:29:32.551Z,25.69
2018-07-04T06:30:32.543Z,25.61
2018-07-04T06:31:32.529Z,25.64
2018-07-04T06:32:32.518Z,25.61
2018-07-04T06:33:32.508Z,25.57
2018-07-04T06:34:32.519Z,25.53
2018-07-04T06:35:32.485Z,25.29
2018-07-04T06:36:32.474Z,25.17
2018-07-04T06:37:32.463Z,25.12
2018-07-04T06:38:32.453Z,24.90
2018-07-04T06:39:32.467Z,24.86
2018-07-04T06:40:32.430Z,24.80
2018-07-04T06:41:32.419Z,24.84
2018-07-04T06:42:32.407Z,24.84
2018-07-04T06:43:32.398Z,24.79
2018-07-04T06:44:32.409Z,24.77
2018-07-04T06:45:32.374Z,24.71
2018-07-04T06:46:32.364Z,24.77
2018-07-04T06:47:32.353Z,24.79
2018-07-04T06:48:32.347Z,24.77
2018-07-04T06:49:32.354Z,24.77
2018-07-04T06:50:32.321Z,24.80
2018-07-04T06:51:32.309Z,24.84
2018-07-04T06:52:32.297Z,24.80
2018-07-04T06:53:32.287Z,24.79
2018-07-04T06:54:32.351Z,24.71
2018-07-04T06:55:32.264Z,24.83
2018-07-04T06:56:32.254Z,24.80
2018-07-04T06:57:32.243Z,24.83
2018-07-04T06:58:32.232Z,24.83
2018-07-04T06:59:32.243Z,24.80
2018-07-04T07:00:32.219Z,24.84
2018-07-04T07:01:32.197Z,24.80
2018-07-04T07:02:32.187Z,24.83
2018-07-04T07:03:32.178Z,24.89
2018-07-04T07:04:32.192Z,24.89
2018-07-04T07:05:32.153Z,24.93
2018-07-04T07:06:32.143Z,24.98
2018-07-04T07:07:32.131Z,24.92
2018-07-04T07:08:32.125Z,25.01
2018-07-04T07:09:32.236Z,25.08
2018-07-04T07:10:32.100Z,25.07
2018-07-04T07:11:32.088Z,25.14
2018-07-04T07:12:32.077Z,25.12
2018-07-04T07:13:32.065Z,25.16
2018-07-04T07:14:32.101Z,25.27
2018-07-04T07:15:32.044Z,25.24
2018-07-04T07:16:32.035Z,25.27
2018-07-04T07:17:32.023Z,25.30
2018-07-04T07:18:32.010Z,25.34
2018-07-04T07:19:32.022Z,25.30
2018-07-04T07:20:31.993Z,25.35
2018-07-04T07:21:31.978Z,25.35
2018-07-04T07:22:31.966Z,25.42
2018-07-04T07:23:31.956Z,25.35
2018-07-04T07:24:31.967Z,25.48
2018-07-04T07:25:31.934Z,25.56
2018-07-04T07:26:31.923Z,25.60
2018-07-04T07:27:31.931Z,25.66
2018-07-04T07:28:31.902Z,25.67
2018-07-04T07:29:31.912Z,25.64
2018-07-04T07:30:31.883Z,25.66
2018-07-04T07:31:31.868Z,25.69
2018-07-04T07:32:31.857Z,25.66
2018-07-04T07:33:31.845Z,25.79
2018-07-04T07:34:31.858Z,25.81
2018-07-04T07:35:31.823Z,25.86
2018-07-04T07:36:31.813Z,25.90
2018-07-04T07:37:31.801Z,25.89
2018-07-04T07:38:31.790Z,25.96
2018-07-04T07:39:31.805Z,25.94
2018-07-04T07:40:31.786Z,26.04
2018-07-04T07:41:31.758Z,25.93
2018-07-04T07:42:31.746Z,25.97
2018-07-04T07:43:31.735Z,26.06
2018-07-04T07:44:31.751Z,26.01
2018-07-04T07:45:31.714Z,25.96
2018-07-04T07:46:31.702Z,25.96
2018-07-04T07:47:31.692Z,26.01
2018-07-04T07:48:31.680Z,26.16
2018-07-04T07:49:31.692Z,26.13
2018-07-04T07:50:31.658Z,26.11
2018-07-04T07:51:31.647Z,26.23
2018-07-04T07:52:31.637Z,26.24
2018-07-04T07:53:31.628Z,26.20
2018-07-04T07:54:31.712Z,26.29
2018-07-04T07:55:31.602Z,26.34
2018-07-04T07:56:31.592Z,26.27
2018-07-04T07:57:31.580Z,26.42
2018-07-04T07:58:31.570Z,26.41
2018-07-04T07:59:31.582Z,26.49
2018-07-04T08:00:31.547Z,26.49
2018-07-04T08:01:31.536Z,26.50
2018-07-04T08:02:31.527Z,26.51
2018-07-04T08:03:31.515Z,26.60
2018-07-04T08:04:31.527Z,26.53
2018-07-04T08:05:31.492Z,26.49
2018-07-04T08:06:31.481Z,26.60
2018-07-04T08:07:31.471Z,26.59
2018-07-04T08:08:31.459Z,26.65
2018-07-04T08:09:31.471Z,26.65
2018-07-04T08:10:31.437Z,26.69
2018-07-04T08:11:31.427Z,26.72
2018-07-04T08:12:31.542Z,26.71
2018-07-04T08:13:31.405Z,26.81
2018-07-04T08:14:31.396Z,26.79
2018-07-04T08:15:31.405Z,26.79
2018-07-04T08:16:31.372Z,26.75
2018-07-04T08:17:31.362Z,26.73
2018-07-04T08:18:31.349Z,26.86
2018-07-04T08:19:31.339Z,26.86
2018-07-04T08:20:31.351Z,26.94
2018-07-04T08:21:31.316Z,26.96
2018-07-04T08:22:31.305Z,26.98
2018-07-04T08:23:31.293Z,26.97
2018-07-04T08:24:31.289Z,26.96
2018-07-04T08:25:31.294Z,26.98
2018-07-04T08:26:31.261Z,27.01
2018-07-04T08:27:31.250Z,26.96
2018-07-04T08:28:31.241Z,26.93
2018-07-04T08:29:31.230Z,26.83
2018-07-04T08:30:31.240Z,26.88
2018-07-04T08:31:31.206Z,26.84
2018-07-04T08:32:31.196Z,26.83
2018-07-04T08:33:31.275Z,26.86
2018-07-04T08:34:31.174Z,26.84
2018-07-04T08:35:31.184Z,26.83
2018-07-04T08:36:31.151Z,26.76
2018-07-04T08:37:31.138Z,26.73
2018-07-04T08:38:31.132Z,26.73
2018-07-04T08:39:31.117Z,26.79
2018-07-04T08:40:31.129Z,26.84
2018-07-04T08:41:31.098Z,26.76
2018-07-04T08:42:31.085Z,26.86
2018-07-04T08:43:31.075Z,26.90
2018-07-04T08:44:31.067Z,26.97
2018-07-04T08:45:31.076Z,27.01
2018-07-04T08:46:31.043Z,27.02
2018-07-04T08:47:31.031Z,27.15
2018-07-04T08:48:31.019Z,27.09
2018-07-04T08:49:31.009Z,27.16
2018-07-04T08:50:31.023Z,27.20
2018-07-04T08:51:30.987Z,27.28
2018-07-04T08:52:31.009Z,27.28
2018-07-04T08:53:30.966Z,27.34
2018-07-04T08:54:30.957Z,27.35
2018-07-04T08:55:30.967Z,27.34
2018-07-04T08:56:30.934Z,27.40
2018-07-04T08:57:30.924Z,27.43
2018-07-04T08:58:30.936Z,27.53
2018-07-04T08:59:30.916Z,27.50
2018-07-04T09:00:30.914Z,27.49
2018-07-04T09:01:30.885Z,27.48
2018-07-04T09:02:30.869Z,27.48
2018-07-04T09:03:30.858Z,27.46
2018-07-04T09:04:30.848Z,27.48
2018-07-04T09:05:30.874Z,27.43
2018-07-04T09:06:30.827Z,27.49
2018-07-04T09:07:30.816Z,27.48
2018-07-04T09:08:30.806Z,27.49
2018-07-04T09:09:30.794Z,27.43
2018-07-04T09:10:30.807Z,27.45
2018-07-04T09:11:30.789Z,27.42
2018-07-04T09:12:30.764Z,27.40
2018-07-04T09:13:30.752Z,27.39
2018-07-04T09:14:30.741Z,27.34
2018-07-04T09:15:30.754Z,27.35
2018-07-04T09:16:30.720Z,27.30
2018-07-04T09:17:30.708Z,27.34
2018-07-04T09:18:30.698Z,27.31
2018-07-04T09:19:30.689Z,27.33
2018-07-04T09:20:30.701Z,27.30
2018-07-04T09:21:30.667Z,27.27
2018-07-04T09:22:30.656Z,27.25
2018-07-04T09:23:30.645Z,27.33
2018-07-04T09:24:30.643Z,27.24
2018-07-04T09:25:30.650Z,27.25
2018-07-04T09:26:30.613Z,27.20
2018-07-04T09:27:30.603Z,27.27
2018-07-04T09:28:30.592Z,27.21
2018-07-04T09:29:30.581Z,27.18
2018-07-04T09:30:30.594Z,27.20
2018-07-04T09:31:30.560Z,27.15
2018-07-04T09:32:30.550Z,27.28
2018-07-04T09:33:30.538Z,27.20
2018-07-04T09:34:30.528Z,27.20
2018-07-04T09:35:30.539Z,27.24
2018-07-04T09:36:30.505Z,27.24
2018-07-04T09:37:30.495Z,27.20
2018-07-04T09:38:30.506Z,27.31
2018-07-04T09:39:30.474Z,27.39
2018-07-04T09:40:30.485Z,27.38
2018-07-04T09:41:30.452Z,27.49
2018-07-04T09:42:30.440Z,27.40
2018-07-04T09:43:30.430Z,27.43
2018-07-04T09:44:30.421Z,27.46
2018-07-04T09:45:30.432Z,27.45
2018-07-04T09:46:30.401Z,27.61
2018-07-04T09:47:30.388Z,27.66
2018-07-04T09:48:30.378Z,27.68
2018-07-04T09:49:30.369Z,27.71
2018-07-04T09:50:30.378Z,27.74
2018-07-04T09:51:30.345Z,27.77
2018-07-04T09:52:30.334Z,27.81
2018-07-04T09:53:30.323Z,27.84
2018-07-04T09:54:30.315Z,27.90
2018-07-04T09:55:30.303Z,27.86
2018-07-04T09:56:30.317Z,27.93
2018-07-04T09:57:30.282Z,27.98
2018-07-04T09:58:30.270Z,28.01
2018-07-04T09:59:30.260Z,28.01
2018-07-04T10:00:30.271Z,27.96
2018-07-04T10:01:30.239Z,28.06
2018-07-04T10:02:30.228Z,28.08
2018-07-04T10:03:30.216Z,28.09
2018-07-04T10:04:30.207Z,28.15
2018-07-04T10:05:30.200Z,28.18
2018-07-04T10:06:30.208Z,28.08
2018-07-04T10:07:30.180Z,28.08
2018-07-04T10:08:30.163Z,28.20
2018-07-04T10:09:30.153Z,28.17
2018-07-04T10:10:30.144Z,28.20
2018-07-04T10:11:30.154Z,28.14
2018-07-04T10:12:30.126Z,28.13
2018-07-04T10:13:30.110Z,28.24
2018-07-04T10:14:30.099Z,28.21
2018-07-04T10:15:30.108Z,28.15
2018-07-04T10:16:30.102Z,28.11
2018-07-04T10:17:30.067Z,28.20
2018-07-04T10:18:30.056Z,28.20
2018-07-04T10:19:30.046Z,28.20
2018-07-04T10:20:30.035Z,28.25
2018-07-04T10:21:30.049Z,28.28
2018-07-04T10:22:30.014Z,28.20
2018-07-04T10:23:30.005Z,28.25
2018-07-04T10:24:29.993Z,28.27
2018-07-04T10:25:29.983Z,28.24
2018-07-04T10:26:30.445Z,28.33
2018-07-04T10:27:29.962Z,28.27
2018-07-04T10:28:30.204Z,28.33
2018-07-04T10:29:29.939Z,28.38
2018-07-04T10:30:29.928Z,28.38
2018-07-04T10:31:29.959Z,28.43
2018-07-04T10:32:29.908Z,28.50
2018-07-04T10:33:29.896Z,28.58
2018-07-04T10:34:29.886Z,28.55
2018-07-04T10:35:29.875Z,28.54
2018-07-04T10:36:29.886Z,28.57
2018-07-04T10:37:29.853Z,28.52
2018-07-04T10:38:29.843Z,28.54
2018-07-04T10:39:29.832Z,28.48
2018-07-04T10:40:29.820Z,28.48
2018-07-04T10:41:29.835Z,28.43
2018-07-04T10:42:29.808Z,28.50
2018-07-04T10:43:29.788Z,28.43
2018-07-04T10:44:29.777Z,28.27
2018-07-04T10:45:29.766Z,28.27
2018-07-04T10:46:29.777Z,28.28
2018-07-04T10:47:29.749Z,28.28
2018-07-04T10:48:29.734Z,28.33
2018-07-04T10:49:29.723Z,28.38
2018-07-04T10:50:29.714Z,28.35
2018-07-04T10:51:29.730Z,28.38
2018-07-04T10:52:29.689Z,28.25
2018-07-04T10:53:29.701Z,28.15
2018-07-04T10:54:29.670Z,28.14
2018-07-04T10:55:29.658Z,28.11
2018-07-04T10:56:29.668Z,28.11
2018-07-04T10:57:29.635Z,28.18
2018-07-04T10:58:29.649Z,28.20
2018-07-04T10:59:29.614Z,28.18
2018-07-04T11:00:29.608Z,28.24
2018-07-04T11:01:29.613Z,28.28
2018-07-04T11:02:29.579Z,28.24
2018-07-04T11:03:29.568Z,28.43
2018-07-04T11:04:29.585Z,28.38
2018-07-04T11:05:29.549Z,28.36
2018-07-04T11:06:29.557Z,28.48
2018-07-04T11:07:29.531Z,28.48
2018-07-04T11:08:29.518Z,28.55
2018-07-04T11:09:29.505Z,28.61
2018-07-04T11:10:29.499Z,28.62
2018-07-04T11:11:29.537Z,28.60
2018-07-04T11:12:29.471Z,28.57
2018-07-04T11:13:29.460Z,28.61
2018-07-04T11:14:29.447Z,28.62
2018-07-04T11:15:29.438Z,28.74
2018-07-04T11:16:29.454Z,28.72
2018-07-04T11:17:29.415Z,28.77
2018-07-04T11:18:29.407Z,28.76
2018-07-04T11:19:29.392Z,28.73
2018-07-04T11:20:29.381Z,28.70
2018-07-04T11:21:29.394Z,28.79
2018-07-04T11:22:29.363Z,28.73
2018-07-04T11:23:29.347Z,28.85
2018-07-04T11:24:29.339Z,28.80
2018-07-04T11:25:29.325Z,28.82
2018-07-04T11:26:29.337Z,28.85
2018-07-04T11:27:29.304Z,28.83
2018-07-04T11:28:29.333Z,28.85
2018-07-04T11:29:29.281Z,28.83
2018-07-04T11:30:29.271Z,28.87
2018-07-04T11:31:29.283Z,28.87
2018-07-04T11:32:29.247Z,28.82
2018-07-04T11:33:29.237Z,28.79
2018-07-04T11:34:29.225Z,28.80
2018-07-04T11:35:29.222Z,28.76
2018-07-04T11:36:29.228Z,28.85
2018-07-04T11:37:29.195Z,28.82
2018-07-04T11:38:29.205Z,28.76
2018-07-04T11:39:29.170Z,28.73
2018-07-04T11:40:29.158Z,28.58
2018-07-04T11:41:29.149Z,28.62
2018-07-04T11:42:29.161Z,28.54
2018-07-04T11:43:29.125Z,28.54
2018-07-04T11:44:29.115Z,28.46
2018-07-04T11:45:29.104Z,28.42
2018-07-04T11:46:29.094Z,28.32
2018-07-04T11:47:29.105Z,28.28
2018-07-04T11:48:29.069Z,28.25
2018-07-04T11:49:29.081Z,28.20
2018-07-04T11:50:29.048Z,28.25
2018-07-04T11:51:29.043Z,28.15
2018-07-04T11:52:29.048Z,28.17
2018-07-04T11:53:29.013Z,28.13
2018-07-04T11:54:29.002Z,28.08
2018-07-04T11:55:28.991Z,28.09
2018-07-04T11:56:28.999Z,28.09
2018-07-04T11:57:29.001Z,28.01
2018-07-04T11:58:28.957Z,27.95
2018-07-04T11:59:28.952Z,27.83
2018-07-04T12:00:28.936Z,27.74
2018-07-04T12:01:28.925Z,27.80
2018-07-04T12:02:28.936Z,27.76
2018-07-04T12:03:28.903Z,27.71
2018-07-04T12:04:28.892Z,27.66
2018-07-04T12:05:28.929Z,27.71
2018-07-04T12:06:28.871Z,27.59
2018-07-04T12:07:28.886Z,27.59
2018-07-04T12:08:28.848Z,27.50
2018-07-04T12:09:28.838Z,27.55
2018-07-04T12:10:28.826Z,27.50
2018-07-04T12:11:28.816Z,27.46
2018-07-04T12:12:28.828Z,27.43
2018-07-04T12:13:28.797Z,27.30
2018-07-04T12:14:28.782Z,27.42
2018-07-04T12:15:28.771Z,27.33
2018-07-04T12:16:28.760Z,27.33
2018-07-04T12:17:28.779Z,27.28
2018-07-04T12:18:28.738Z,27.24
2018-07-04T12:19:28.728Z,27.27
2018-07-04T12:20:28.722Z,27.16
2018-07-04T12:21:28.707Z,27.23
2018-07-04T12:22:28.723Z,27.23
2018-07-04T12:23:28.686Z,27.11
2018-07-04T12:24:28.675Z,27.12
2018-07-04T12:25:28.664Z,27.12
2018-07-04T12:26:28.653Z,27.12
2018-07-04T12:27:28.665Z,27.15
2018-07-04T12:28:28.633Z,27.11
2018-07-04T12:29:28.621Z,26.96
2018-07-04T12:30:28.612Z,26.96
2018-07-04T12:31:28.602Z,26.84
2018-07-04T12:32:28.612Z,26.90
2018-07-04T12:33:28.579Z,26.88
2018-07-04T12:34:28.569Z,26.73
2018-07-04T12:35:28.559Z,26.81
2018-07-04T12:36:28.547Z,26.71
2018-07-04T12:37:28.589Z,26.68
2018-07-04T12:38:28.526Z,26.66
2018-07-04T12:39:28.515Z,26.68
2018-07-04T12:40:28.506Z,26.73
2018-07-04T12:41:28.501Z,26.71
2018-07-04T12:42:28.505Z,26.60
2018-07-04T12:43:28.550Z,26.53
2018-07-04T12:44:28.461Z,26.42
2018-07-04T12:45:28.449Z,26.44
2018-07-04T12:46:28.438Z,26.41
2018-07-04T12:47:28.464Z,26.44
2018-07-04T12:48:28.417Z,26.29
2018-07-04T12:49:28.406Z,26.32
2018-07-04T12:50:28.415Z,26.28
2018-07-04T12:51:28.384Z,26.13
2018-07-04T12:52:28.395Z,26.06